Time;durP1;ratioP1;P1;durP2;ratioP2;P2;SDS_P1;SDS_P2;PMS_P1;PMS_P2;Temp;Humidity;BMP_temperature;BMP_pressure;BME280_temperature;BME280_humidity;BME280_pressure;Samples;Min_cycle;Max_cycle;Signal;HPM_P1;HPM_P2
2021/12/03 00:00:56;;;;;;;0.82;0.82;;;-0.60;99.90;;;;;;4970801;28;20046;-83
2021/12/03 00:03:22;;;;;;;0.93;0.93;;;-0.60;99.90;;;;;;4974590;28;20047;-83
2021/12/03 00:05:49;;;;;;;0.93;0.93;;;-0.60;99.90;;;;;;4971736;28;20122;-83
2021/12/03 00:08:14;;;;;;;0.82;0.82;;;-0.70;99.90;;;;;;4961983;28;20456;-83
2021/12/03 00:10:40;;;;;;;2.42;1.45;;;-0.70;99.90;;;;;;4960646;28;20066;-83
2021/12/03 00:13:07;;;;;;;0.90;0.90;;;-0.70;99.90;;;;;;4959711;28;20039;-82
2021/12/03 00:15:35;;;;;;;0.90;0.90;;;-0.70;99.90;;;;;;4947007;28;20047;-83
2021/12/03 00:18:00;;;;;;;1.52;1.10;;;-0.70;99.90;;;;;;4976805;28;20110;-83
2021/12/03 00:20:26;;;;;;;0.90;0.90;;;-0.70;99.90;;;;;;4967482;28;20054;-83
2021/12/03 00:22:56;;;;;;;1.00;1.00;;;-0.70;99.90;;;;;;4968537;28;20042;-83
2021/12/03 00:25:22;;;;;;;0.90;0.90;;;-0.70;99.90;;;;;;4971889;28;20042;-83
2021/12/03 00:27:48;;;;;;;1.00;1.00;;;-0.70;99.90;;;;;;4962034;28;20106;-83
2021/12/03 00:30:16;;;;;;;0.80;0.80;;;-0.80;99.90;;;;;;4971235;28;20039;-82
2021/12/03 00:32:43;;;;;;;0.90;0.90;;;-0.70;99.90;;;;;;4971473;28;20431;-84
2021/12/03 00:35:09;;;;;;;1.00;1.00;;;-0.80;99.90;;;;;;4953140;28;20047;-84
2021/12/03 00:37:36;;;;;;;1.00;1.00;;;-0.80;99.90;;;;;;4973450;28;20050;-84
2021/12/03 00:40:04;;;;;;;1.00;1.00;;;-0.80;99.90;;;;;;4956806;28;20039;-84
2021/12/03 00:42:30;;;;;;;0.88;0.88;;;-0.80;99.90;;;;;;4969412;28;20154;-83
2021/12/03 00:44:56;;;;;;;0.90;0.90;;;-0.80;99.90;;;;;;4975071;28;20147;-82
2021/12/03 00:47:23;;;;;;;0.95;0.95;;;-0.80;99.90;;;;;;4972974;28;20051;-83
2021/12/03 00:49:49;;;;;;;0.90;0.90;;;-0.80;99.90;;;;;;4959771;28;20103;-83
2021/12/03 00:52:32;;;;;;;;;;;;;;;;;;;;;
2021/12/03 00:54:58;;;;;;;0.90;0.90;;;-0.80;99.90;;;;;;4967589;28;20073;-83
2021/12/03 00:57:24;;;;;;;0.90;0.90;;;-0.80;99.90;;;;;;4973797;28;20991;-83
2021/12/03 00:59:50;;;;;;;0.90;0.90;;;-0.80;99.90;;;;;;4969822;28;20046;-83
2021/12/03 01:02:17;;;;;;;0.85;0.85;;;-0.80;99.90;;;;;;4967117;28;20043;-83
2021/12/03 01:04:44;;;;;;;0.90;0.90;;;-0.80;99.90;;;;;;4972505;28;20046;-83
2021/12/03 01:07:09;;;;;;;0.90;0.90;;;-0.80;99.90;;;;;;4967439;28;20035;-83
2021/12/03 01:09:35;;;;;;;0.90;0.90;;;-0.80;99.90;;;;;;4969653;28;20039;-82
2021/12/03 01:12:01;;;;;;;1.05;1.00;;;-0.70;99.90;;;;;;4967554;28;20051;-83
2021/12/03 01:14:26;;;;;;;1.00;1.00;;;-0.70;99.90;;;;;;4972054;28;20054;-83
2021/12/03 01:16:53;;;;;;;0.85;0.85;;;-0.70;99.90;;;;;;4972769;28;20042;-83
2021/12/03 01:19:19;;;;;;;0.90;0.90;;;-0.70;99.90;;;;;;4952621;29;20048;-83
2021/12/03 01:21:45;;;;;;;0.98;0.98;;;-0.60;99.90;;;;;;4955192;28;20053;-84
2021/12/03 01:24:11;;;;;;;0.90;0.90;;;-0.70;99.90;;;;;;4956423;28;20035;-82
2021/12/03 01:26:39;;;;;;;0.95;0.95;;;-0.60;99.90;;;;;;4963709;28;20059;-83
2021/12/03 01:29:04;;;;;;;0.90;0.90;;;-0.60;99.90;;;;;;4953904;28;20039;-82
2021/12/03 01:31:30;;;;;;;0.90;0.90;;;-0.60;99.90;;;;;;4956478;28;20062;-83
2021/12/03 01:33:56;;;;;;;1.10;1.10;;;-0.50;99.90;;;;;;4972854;28;20057;-83
2021/12/03 01:36:21;;;;;;;3.65;2.47;;;-0.50;99.90;;;;;;4959108;28;20070;-83
2021/12/03 01:38:47;;;;;;;0.82;0.82;;;-0.40;99.90;;;;;;4978883;28;20555;-83
2021/12/03 01:41:12;;;;;;;0.90;0.90;;;-0.40;99.90;;;;;;4951884;28;20054;-84
2021/12/03 01:43:39;;;;;;;0.90;0.90;;;-0.40;99.90;;;;;;4974714;28;20059;-84
2021/12/03 01:46:09;;;;;;;1.00;1.00;;;-0.40;99.90;;;;;;4967408;28;20043;-83
2021/12/03 01:48:36;;;;;;;1.00;1.00;;;-0.40;99.90;;;;;;4971800;28;20499;-83
2021/12/03 01:51:03;;;;;;;1.35;1.30;;;-0.40;99.90;;;;;;4964603;28;20138;-82
2021/12/03 01:53:32;;;;;;;1.25;1.15;;;-0.40;99.90;;;;;;4967906;28;20110;-84
2021/12/03 01:56:02;;;;;;;0.95;0.95;;;-0.40;99.90;;;;;;4957648;28;20050;-84
2021/12/03 01:58:28;;;;;;;1.00;1.00;;;-0.40;99.90;;;;;;4956658;28;20058;-83
2021/12/03 02:00:57;;;;;;;1.00;1.00;;;-0.40;99.90;;;;;;4969471;28;20039;-82
2021/12/03 02:03:26;;;;;;;0.90;0.90;;;-0.30;99.90;;;;;;4974054;28;20043;-82
2021/12/03 02:05:52;;;;;;;0.90;0.90;;;-0.30;99.90;;;;;;4968122;28;20051;-83
2021/12/03 02:08:18;;;;;;;0.93;0.93;;;-0.30;99.90;;;;;;4975448;28;20559;-84
2021/12/03 02:10:46;;;;;;;0.90;0.90;;;-0.20;99.90;;;;;;4971072;28;20131;-83
2021/12/03 02:13:12;;;;;;;0.80;0.80;;;-0.20;99.90;;;;;;4975127;28;20047;-83
2021/12/03 02:15:40;;;;;;;0.90;0.90;;;-0.20;99.90;;;;;;4975928;28;20066;-83
2021/12/03 02:18:06;;;;;;;0.90;0.90;;;-0.20;99.90;;;;;;4974569;28;20034;-83
2021/12/03 02:20:32;;;;;;;1.35;1.10;;;-0.20;99.90;;;;;;4969825;28;20050;-84
2021/12/03 02:22:58;;;;;;;1.02;1.02;;;-0.20;99.90;;;;;;4965005;28;20043;-84
2021/12/03 02:25:26;;;;;;;1.45;1.35;;;-0.10;99.90;;;;;;4975675;28;20054;-84
2021/12/03 02:27:55;;;;;;;0.80;0.80;;;-0.10;99.90;;;;;;4974757;28;20042;-84
2021/12/03 02:30:22;;;;;;;0.90;0.90;;;-0.10;99.90;;;;;;4972255;28;20961;-84
2021/12/03 02:32:50;;;;;;;0.90;0.90;;;-0.10;99.90;;;;;;4965090;28;20112;-84
2021/12/03 02:35:17;;;;;;;1.10;1.10;;;0.00;99.90;;;;;;4970230;28;20043;-83
2021/12/03 02:37:43;;;;;;;0.90;0.90;;;0.00;99.90;;;;;;4969559;28;20043;-83
2021/12/03 02:40:10;;;;;;;1.30;1.20;;;0.00;99.90;;;;;;4971159;28;20065;-83
2021/12/03 02:42:36;;;;;;;1.25;1.17;;;0.10;99.90;;;;;;4952204;28;20051;-83
2021/12/03 02:45:05;;;;;;;0.90;0.90;;;0.10;99.90;;;;;;4966387;28;20046;-83
2021/12/03 02:47:31;;;;;;;0.80;0.80;;;0.10;99.90;;;;;;4960638;28;20043;-84
2021/12/03 02:49:57;;;;;;;0.90;0.90;;;0.00;99.90;;;;;;4950236;29;20452;-83
2021/12/03 02:52:22;;;;;;;0.85;0.85;;;0.10;99.90;;;;;;4957185;28;20046;-81
2021/12/03 02:54:48;;;;;;;1.52;1.42;;;0.00;99.90;;;;;;4971394;28;20071;-83
2021/12/03 02:57:14;;;;;;;3.08;1.42;;;0.00;99.90;;;;;;4979688;28;20148;-84
2021/12/03 02:59:40;;;;;;;0.88;0.88;;;0.00;99.90;;;;;;4975220;28;20042;-83
2021/12/03 03:02:05;;;;;;;0.82;0.82;;;0.10;99.90;;;;;;4969621;28;20122;-83
2021/12/03 03:04:31;;;;;;;4.00;2.25;;;0.10;99.90;;;;;;4970337;28;20075;-84
2021/12/03 03:06:57;;;;;;;1.17;1.00;;;0.10;99.90;;;;;;4965470;28;20040;-83
2021/12/03 03:09:23;;;;;;;1.00;1.00;;;0.00;99.90;;;;;;4973167;28;20062;-83
2021/12/03 03:11:48;;;;;;;0.90;0.90;;;0.10;99.90;;;;;;4978435;28;20039;-83
2021/12/03 03:14:14;;;;;;;0.88;0.88;;;0.10;99.90;;;;;;4971066;28;20050;-83
2021/12/03 03:16:42;;;;;;;1.75;1.65;;;0.10;99.90;;;;;;4962864;28;20042;-83
2021/12/03 03:19:12;;;;;;;1.30;1.20;;;0.10;99.90;;;;;;4962008;28;20047;-84
2021/12/03 03:21:39;;;;;;;1.23;1.13;;;0.10;99.90;;;;;;4975935;28;20054;-83
2021/12/03 03:24:07;;;;;;;1.00;1.00;;;0.10;99.90;;;;;;4978271;28;20146;-83
2021/12/03 03:26:39;;;;;;;0.90;0.90;;;0.10;99.90;;;;;;4959274;28;20045;-84
2021/12/03 03:29:10;;;;;;;1.20;1.10;;;0.10;99.90;;;;;;4954551;28;20125;-85
2021/12/03 03:31:37;;;;;;;1.58;1.48;;;0.10;99.90;;;;;;4950087;28;20071;-84
2021/12/03 03:34:04;;;;;;;0.90;0.90;;;0.10;99.90;;;;;;4972175;28;20057;-84
2021/12/03 03:36:32;;;;;;;1.00;1.00;;;0.20;99.90;;;;;;4979223;28;20050;-84
2021/12/03 03:38:58;;;;;;;0.90;0.90;;;0.10;99.90;;;;;;4977708;28;20115;-84
2021/12/03 03:41:24;;;;;;;0.90;0.90;;;0.20;99.90;;;;;;4976755;28;20070;-84
2021/12/03 03:43:50;;;;;;;1.77;1.48;;;0.10;99.90;;;;;;4959326;28;20086;-83
2021/12/03 03:46:15;;;;;;;1.17;1.15;;;0.30;99.90;;;;;;4976764;28;20055;-85
2021/12/03 03:48:41;;;;;;;1.40;1.30;;;0.20;99.90;;;;;;4976815;28;20046;-85
2021/12/03 03:51:07;;;;;;;0.93;0.93;;;0.20;99.90;;;;;;4974940;28;20460;-85
2021/12/03 03:53:32;;;;;;;4.35;2.70;;;0.20;99.90;;;;;;4961491;28;20045;-82
2021/12/03 03:55:58;;;;;;;1.65;1.33;;;0.20;99.90;;;;;;4977345;28;20452;-82
2021/12/03 03:58:24;;;;;;;0.90;0.90;;;0.20;99.90;;;;;;4971214;28;20047;-84
2021/12/03 04:00:49;;;;;;;1.45;1.35;;;0.20;99.90;;;;;;4972386;28;20102;-83
2021/12/03 04:03:15;;;;;;;1.50;1.40;;;0.20;99.90;;;;;;4972469;28;20047;-83
2021/12/03 04:05:41;;;;;;;1.45;1.35;;;0.20;99.90;;;;;;4961062;28;20053;-84
2021/12/03 04:08:07;;;;;;;1.20;1.15;;;0.20;99.90;;;;;;4973690;28;20039;-84
2021/12/03 04:10:34;;;;;;;0.90;0.90;;;0.20;99.90;;;;;;4962068;28;20047;-84
2021/12/03 04:12:59;;;;;;;0.90;0.90;;;0.10;99.90;;;;;;4956908;28;20065;-84
2021/12/03 04:15:25;;;;;;;3.42;2.25;;;0.20;99.90;;;;;;4958987;28;20487;-85
2021/12/03 04:17:51;;;;;;;1.00;1.00;;;0.20;99.90;;;;;;4959671;28;20051;-85
2021/12/03 04:20:19;;;;;;;12.23;2.25;;;0.20;99.90;;;;;;4955683;28;20066;-85
2021/12/03 04:22:45;;;;;;;0.95;0.95;;;0.20;99.90;;;;;;4958816;28;20476;-85
2021/12/03 04:25:15;;;;;;;0.90;0.90;;;0.10;99.90;;;;;;4974893;28;20050;-86
2021/12/03 04:27:42;;;;;;;1.33;1.23;;;0.10;99.90;;;;;;4960883;28;20051;-84
2021/12/03 04:30:12;;;;;;;0.90;0.90;;;0.10;99.90;;;;;;4978231;28;20047;-85
2021/12/03 04:32:38;;;;;;;1.35;1.20;;;0.80;99.90;;;;;;4958673;28;20108;-85
2021/12/03 04:35:05;;;;;;;0.90;0.90;;;0.10;99.90;;;;;;4962045;28;20035;-84
2021/12/03 04:37:31;;;;;;;0.90;0.90;;;0.10;99.90;;;;;;4973869;28;20058;-85
2021/12/03 04:39:57;;;;;;;4.28;2.65;;;0.10;99.90;;;;;;4958794;28;20113;-84
2021/12/03 04:42:22;;;;;;;0.90;0.90;;;0.10;99.90;;;;;;4954773;28;20456;-85
2021/12/03 04:44:48;;;;;;;1.08;1.05;;;0.10;99.90;;;;;;4956370;28;20059;-85
2021/12/03 04:47:13;;;;;;;1.10;1.10;;;0.10;99.90;;;;;;4960569;28;20038;-85
2021/12/03 04:49:39;;;;;;;1.33;1.23;;;0.10;99.90;;;;;;4952266;28;20043;-85
2021/12/03 04:52:05;;;;;;;0.90;0.90;;;0.10;99.90;;;;;;4954785;28;20046;-84
2021/12/03 04:54:31;;;;;;;1.20;1.10;;;0.10;99.90;;;;;;4976311;28;20053;-84
2021/12/03 04:56:57;;;;;;;1.10;1.10;;;0.00;99.90;;;;;;4969783;28;20049;-85
2021/12/03 04:59:23;;;;;;;1.42;1.33;;;0.00;99.90;;;;;;4976213;28;20057;-84
2021/12/03 05:01:53;;;;;;;0.90;0.90;;;0.00;99.90;;;;;;4960910;28;20038;-85
2021/12/03 05:04:19;;;;;;;0.98;0.98;;;0.00;99.90;;;;;;4983285;28;20150;-84
2021/12/03 05:06:56;;;;;;;1.00;1.00;;;0.00;99.90;;;;;;4970025;28;20233;-84
2021/12/03 05:09:23;;;;;;;1.05;1.02;;;0.00;99.90;;;;;;4978069;28;20047;-85
2021/12/03 05:11:49;;;;;;;1.00;1.00;;;0.00;99.90;;;;;;4961195;28;20039;-84
2021/12/03 05:14:15;;;;;;;1.55;1.33;;;-0.10;99.90;;;;;;4958465;28;20051;-84
2021/12/03 05:16:40;;;;;;;0.85;0.85;;;-0.10;99.90;;;;;;4951166;28;20074;-85
2021/12/03 05:19:06;;;;;;;1.15;1.10;;;-0.10;99.90;;;;;;4970695;28;20134;-84
2021/12/03 05:21:32;;;;;;;0.95;0.95;;;-0.10;99.90;;;;;;4968917;28;20125;-84
2021/12/03 05:23:57;;;;;;;0.80;0.80;;;-0.10;99.90;;;;;;4957143;28;20044;-85
2021/12/03 05:26:23;;;;;;;0.80;0.80;;;-0.10;99.90;;;;;;4964067;28;20034;-84
2021/12/03 05:28:49;;;;;;;0.90;0.90;;;-0.10;99.90;;;;;;4960123;28;20038;-84
2021/12/03 05:31:15;;;;;;;0.90;0.90;;;0.00;99.90;;;;;;4952896;29;20051;-84
2021/12/03 05:33:41;;;;;;;1.00;1.00;;;-0.10;99.90;;;;;;4950899;28;20114;-84
2021/12/03 05:36:06;;;;;;;1.33;1.23;;;0.00;99.90;;;;;;4964442;28;20039;-84
2021/12/03 05:38:32;;;;;;;1.58;1.48;;;0.00;99.90;;;;;;4972587;28;20108;-84
2021/12/03 05:40:58;;;;;;;0.90;0.90;;;0.00;99.90;;;;;;4972001;28;20672;-84
2021/12/03 05:43:24;;;;;;;0.90;0.90;;;0.10;99.90;;;;;;4971773;28;20133;-84
2021/12/03 05:45:50;;;;;;;0.80;0.80;;;0.10;99.90;;;;;;4967050;28;20038;-84
2021/12/03 05:48:15;;;;;;;1.15;1.08;;;0.10;99.90;;;;;;4969349;28;20039;-84
2021/12/03 05:50:42;;;;;;;0.90;0.90;;;0.10;99.90;;;;;;4956426;28;20050;-84
2021/12/03 05:53:08;;;;;;;1.38;1.27;;;0.10;99.90;;;;;;4967421;28;20352;-85
2021/12/03 05:55:34;;;;;;;1.10;1.10;;;0.10;99.90;;;;;;4970142;28;20053;-85
2021/12/03 05:57:59;;;;;;;1.00;1.00;;;0.10;99.90;;;;;;4962926;28;20035;-85
2021/12/03 06:00:30;;;;;;;1.00;1.00;;;0.10;99.90;;;;;;4970999;28;20046;-84
2021/12/03 06:02:57;;;;;;;1.40;1.30;;;0.10;99.90;;;;;;4960862;28;20035;-84
2021/12/03 06:05:25;;;;;;;1.45;1.30;;;0.10;99.90;;;;;;4968291;28;20052;-84
2021/12/03 06:07:51;;;;;;;1.00;0.98;;;0.10;99.90;;;;;;4967273;28;20043;-86
2021/12/03 06:10:17;;;;;;;1.00;1.00;;;0.20;99.90;;;;;;4959467;28;20084;-85
2021/12/03 06:12:43;;;;;;;1.55;1.45;;;0.20;99.90;;;;;;4962299;28;20062;-85
2021/12/03 06:15:09;;;;;;;1.70;1.60;;;0.20;99.90;;;;;;4975259;28;20428;-85
2021/12/03 06:17:36;;;;;;;0.90;0.90;;;0.20;99.90;;;;;;4977800;28;20082;-83
2021/12/03 06:20:02;;;;;;;2.15;1.95;;;0.30;99.90;;;;;;4957013;28;20043;-84
2021/12/03 06:22:27;;;;;;;1.00;1.00;;;0.30;99.90;;;;;;4976904;28;20078;-84
2021/12/03 06:24:53;;;;;;;1.00;1.00;;;0.50;99.90;;;;;;4978270;28;20058;-84
2021/12/03 06:27:18;;;;;;;1.00;1.00;;;0.40;99.90;;;;;;4975063;28;20046;-85
2021/12/03 06:29:44;;;;;;;1.13;1.13;;;0.40;99.90;;;;;;4966267;28;20053;-85
2021/12/03 06:32:10;;;;;;;0.90;0.90;;;0.50;99.90;;;;;;4956386;29;20067;-84
2021/12/03 06:34:39;;;;;;;1.02;1.02;;;0.50;99.90;;;;;;4958288;28;20192;-84
2021/12/03 06:37:05;;;;;;;0.90;0.90;;;0.50;99.90;;;;;;4963008;28;20067;-84
2021/12/03 06:39:31;;;;;;;1.10;1.10;;;0.50;99.90;;;;;;4969741;28;20111;-83
2021/12/03 06:41:57;;;;;;;0.90;0.90;;;0.50;99.90;;;;;;4976100;28;20046;-85
2021/12/03 06:44:24;;;;;;;1.05;1.05;;;0.60;99.90;;;;;;4973555;28;20071;-86
2021/12/03 06:46:51;;;;;;;0.90;0.90;;;0.60;99.90;;;;;;4974523;28;20106;-81
2021/12/03 06:49:16;;;;;;;1.33;1.23;;;0.60;99.90;;;;;;4973737;28;20118;-84
2021/12/03 06:51:44;;;;;;;0.90;0.90;;;0.60;99.90;;;;;;4978781;28;20489;-84
2021/12/03 06:54:11;;;;;;;0.85;0.85;;;0.70;99.90;;;;;;4957988;28;20055;-84
2021/12/03 06:56:51;;;;;;;1.42;1.33;;;0.70;99.90;;;;;;4956187;28;20109;-83
2021/12/03 06:59:18;;;;;;;1.00;1.00;;;0.80;99.90;;;;;;4976722;28;20047;-84
2021/12/03 07:01:44;;;;;;;1.05;0.98;;;0.80;99.90;;;;;;4958150;28;20034;-84
2021/12/03 07:04:11;;;;;;;0.90;0.90;;;0.80;99.90;;;;;;4956613;28;20050;-84
2021/12/03 07:06:38;;;;;;;0.95;0.95;;;0.90;99.90;;;;;;4946284;29;20043;-85
2021/12/03 07:09:05;;;;;;;0.90;0.90;;;1.00;99.90;;;;;;4963219;28;20466;-85
2021/12/03 07:11:31;;;;;;;1.20;1.10;;;0.90;99.90;;;;;;4979732;28;20129;-85
2021/12/03 07:13:57;;;;;;;0.90;0.90;;;1.20;99.90;;;;;;4962278;28;20878;-86
2021/12/03 07:16:22;;;;;;;1.17;1.08;;;0.90;99.90;;;;;;4967708;28;20035;-84
2021/12/03 07:18:48;;;;;;;0.90;0.90;;;0.90;99.90;;;;;;4976575;28;20047;-84
2021/12/03 07:21:14;;;;;;;0.90;0.90;;;0.90;99.90;;;;;;4955617;28;20460;-82
2021/12/03 07:23:40;;;;;;;0.82;0.82;;;0.90;99.90;;;;;;4966677;28;20154;-81
2021/12/03 07:26:06;;;;;;;0.90;0.90;;;0.90;99.90;;;;;;4969066;28;20158;-82
2021/12/03 07:28:32;;;;;;;0.98;0.98;;;0.90;99.90;;;;;;4963344;28;20035;-82
2021/12/03 07:30:59;;;;;;;0.90;0.90;;;0.80;99.90;;;;;;4964363;28;20046;-83
2021/12/03 07:33:26;;;;;;;0.90;0.90;;;0.80;99.90;;;;;;4976905;28;20046;-82
2021/12/03 07:35:52;;;;;;;0.95;0.95;;;1.00;99.90;;;;;;4963839;28;20042;-84
2021/12/03 07:38:18;;;;;;;1.52;1.42;;;0.80;99.90;;;;;;4971818;28;20077;-83
2021/12/03 07:40:45;;;;;;;1.02;1.00;;;0.80;99.90;;;;;;4967966;28;20503;-83
2021/12/03 07:43:11;;;;;;;0.90;0.90;;;0.80;99.90;;;;;;4974603;28;20065;-84
2021/12/03 07:45:37;;;;;;;0.93;0.93;;;0.90;99.90;;;;;;4968066;28;20047;-84
2021/12/03 07:48:04;;;;;;;1.20;1.10;;;0.90;99.90;;;;;;4965684;28;20105;-83
2021/12/03 07:50:34;;;;;;;0.90;0.90;;;0.90;99.90;;;;;;4966906;28;20043;-82
2021/12/03 07:52:59;;;;;;;0.90;0.90;;;1.00;99.90;;;;;;4977703;28;20039;-82
2021/12/03 07:55:25;;;;;;;1.33;1.23;;;0.90;99.90;;;;;;4975610;28;20046;-82
2021/12/03 07:57:52;;;;;;;1.00;1.00;;;1.00;99.90;;;;;;4962820;28;21692;-84
2021/12/03 08:00:18;;;;;;;1.05;1.05;;;1.00;99.90;;;;;;4968569;28;20043;-84
2021/12/03 08:02:44;;;;;;;1.00;1.00;;;1.00;99.90;;;;;;4977972;28;20042;-84
2021/12/03 08:05:10;;;;;;;0.80;0.80;;;1.00;99.90;;;;;;4965167;28;20511;-83
2021/12/03 08:07:35;;;;;;;0.80;0.80;;;1.10;99.90;;;;;;4977023;28;20073;-82
2021/12/03 08:10:02;;;;;;;0.82;0.82;;;1.00;99.90;;;;;;4975709;28;20047;-83
2021/12/03 08:12:28;;;;;;;0.85;0.85;;;1.10;99.90;;;;;;4975553;28;20043;-84
2021/12/03 08:14:54;;;;;;;0.90;0.90;;;1.10;99.90;;;;;;4952334;29;20074;-83
2021/12/03 08:17:19;;;;;;;0.90;0.90;;;1.20;99.90;;;;;;4956028;28;20105;-84
2021/12/03 08:19:46;;;;;;;1.00;1.00;;;1.10;99.90;;;;;;4959499;28;20050;-84
2021/12/03 08:22:11;;;;;;;1.00;1.00;;;1.10;99.90;;;;;;4963365;28;20168;-84
2021/12/03 08:24:37;;;;;;;0.90;0.90;;;1.20;99.90;;;;;;4974331;28;20125;-84
2021/12/03 08:27:02;;;;;;;0.90;0.90;;;1.20;99.90;;;;;;4966569;28;20030;-83
2021/12/03 08:29:28;;;;;;;0.90;0.90;;;1.80;99.90;;;;;;4957936;28;20043;-84
2021/12/03 08:31:54;;;;;;;0.90;0.90;;;1.30;99.90;;;;;;4962992;28;20037;-84
2021/12/03 08:34:19;;;;;;;4.78;1.70;;;1.30;99.90;;;;;;4951051;29;20063;-84
2021/12/03 08:36:45;;;;;;;1.13;1.10;;;1.30;99.90;;;;;;4970552;28;20047;-84
2021/12/03 08:39:11;;;;;;;0.95;0.95;;;1.30;99.90;;;;;;4968680;28;20047;-83
2021/12/03 08:41:36;;;;;;;0.98;0.98;;;1.40;99.90;;;;;;4979790;28;20062;-83
2021/12/03 08:44:04;;;;;;;0.70;0.70;;;1.40;99.90;;;;;;4964373;28;20047;-82
2021/12/03 08:46:34;;;;;;;0.90;0.90;;;1.40;99.90;;;;;;4966305;28;20456;-82
2021/12/03 08:49:25;;;;;;;0.80;0.80;;;1.50;99.90;;;;;;4963374;28;20043;-84
2021/12/03 08:52:08;;;;;;;1.10;1.05;;;1.50;99.90;;;;;;4969854;28;20058;-82
2021/12/03 08:54:51;;;;;;;0.90;0.90;;;1.60;99.90;;;;;;4978074;28;20372;-82
2021/12/03 08:57:19;;;;;;;0.90;0.90;;;1.60;99.90;;;;;;4961751;28;20047;-83
2021/12/03 08:59:44;;;;;;;1.85;1.75;;;1.70;99.90;;;;;;4968894;28;20098;-82
2021/12/03 09:02:10;;;;;;;0.80;0.80;;;1.70;99.90;;;;;;4963358;28;20050;-83
2021/12/03 09:04:36;;;;;;;0.90;0.90;;;1.70;99.90;;;;;;4971678;28;20071;-82
2021/12/03 09:07:03;;;;;;;0.82;0.82;;;1.80;99.90;;;;;;4972178;28;20042;-84
2021/12/03 09:09:30;;;;;;;0.90;0.90;;;1.80;99.90;;;;;;4969579;28;20094;-82
2021/12/03 09:11:56;;;;;;;0.90;0.90;;;1.80;99.90;;;;;;4961001;28;20050;-84
2021/12/03 09:14:35;;;;;;;0.90;0.90;;;1.80;99.90;;;;;;4968150;28;20043;-83
2021/12/03 09:22:42;;;;;;;1.90;1.33;;;1.90;99.90;;;;;;4944694;28;20054;-83
2021/12/03 09:25:10;;;;;;;1.08;1.08;;;2.00;99.90;;;;;;4974896;28;20042;-82
2021/12/03 09:27:36;;;;;;;0.90;0.90;;;2.10;99.90;;;;;;4975632;28;20487;-83
2021/12/03 09:30:07;;;;;;;1.00;1.00;;;2.10;99.90;;;;;;4948618;29;20043;-83
2021/12/03 09:32:33;;;;;;;1.02;1.00;;;2.10;99.90;;;;;;4965143;28;20047;-83
2021/12/03 09:35:00;;;;;;;1.23;1.15;;;2.00;99.90;;;;;;4968083;28;20062;-83
2021/12/03 09:37:26;;;;;;;1.38;1.27;;;2.10;99.90;;;;;;4960963;28;20121;-83
2021/12/03 09:39:52;;;;;;;1.10;1.10;;;2.10;99.90;;;;;;4975106;28;20055;-83
2021/12/03 09:42:19;;;;;;;2.90;1.70;;;2.10;99.90;;;;;;4954090;29;20055;-84
2021/12/03 09:44:47;;;;;;;1.35;1.25;;;2.20;99.90;;;;;;4967370;28;20055;-83
2021/12/03 09:47:17;;;;;;;1.27;1.17;;;2.20;99.90;;;;;;4964110;28;20091;-84
2021/12/03 09:49:43;;;;;;;1.95;1.85;;;2.20;99.90;;;;;;4968250;28;20080;-82
2021/12/03 09:54:49;;;;;;;1.05;1.05;;;2.40;99.90;;;;;;4971201;28;20055;-83
2021/12/03 09:57:34;;;;;;;0.88;0.88;;;2.50;99.90;;;;;;4972284;28;20054;-84
2021/12/03 10:00:37;;;;;;;1.55;1.45;;;2.40;99.90;;;;;;4973672;28;20202;-84
2021/12/03 10:03:02;;;;;;;3.05;1.52;;;2.50;99.90;;;;;;4964538;28;20069;-83
2021/12/03 10:09:21;;;;;;;;;;;2.60;99.90;;;;;;4982043;28;20050;-83
2021/12/03 10:13:40;;;;;;;1.85;1.75;;;2.60;99.90;;;;;;4972319;28;20062;-84
2021/12/03 10:19:02;;;;;;;1.33;1.23;;;2.80;99.90;;;;;;4967316;28;20149;-84
2021/12/03 10:21:59;;;;;;;0.80;0.80;;;2.70;99.90;;;;;;4965119;28;20075;-84
2021/12/03 10:24:55;;;;;;;1.42;1.33;;;2.70;99.90;;;;;;4973115;28;20082;-84
2021/12/03 10:46:45;;;;;;;0.80;0.80;;;3.00;99.90;;;;;;4963997;28;20055;-84
2021/12/03 10:52:26;;;;;;;0.80;0.80;;;2.90;99.90;;;;;;4978875;28;20061;-85
2021/12/03 10:55:25;;;;;;;0.90;0.90;;;3.50;99.90;;;;;;4960663;28;20043;-84
2021/12/03 10:58:20;;;;;;;1.40;1.30;;;2.90;99.90;;;;;;4977291;28;20074;-84
2021/12/03 11:06:16;;;;;;;1.00;1.00;;;3.00;99.90;;;;;;4972452;28;20085;-84
2021/12/03 11:11:10;;;;;;;;;;;3.30;99.90;;;;;;4975640;28;20061;-84
2021/12/03 11:15:05;;;;;;;1.67;1.55;;;3.00;99.90;;;;;;4976339;28;20043;-82
2021/12/03 12:23:48;;;;;;;8.02;1.33;;;3.10;99.90;;;;;;4971759;28;20050;-82
2021/12/03 12:32:37;;;;;;;2.45;2.30;;;3.10;99.90;;;;;;4976639;28;19933;-84
2021/12/03 12:37:23;;;;;;;0.70;0.70;;;3.10;99.90;;;;;;4966678;28;20062;-85
2021/12/03 12:55:13;;;;;;;0.90;0.90;;;3.00;99.90;;;;;;4968588;28;20046;-82
2021/12/03 13:06:05;;;;;;;0.85;0.85;;;3.10;99.90;;;;;;4973985;28;20042;-85
2021/12/03 13:13:36;;;;;;;0.82;0.82;;;3.00;99.90;;;;;;4968685;28;20058;-84
2021/12/03 13:22:34;;;;;;;0.93;0.93;;;3.00;99.90;;;;;;4978016;28;20050;-85
2021/12/03 13:31:34;;;;;;;1.70;1.17;;;3.00;99.90;;;;;;4969258;28;20051;-84
2021/12/03 13:34:26;;;;;;;1.30;1.20;;;3.00;99.90;;;;;;4974337;28;20380;-83
2021/12/03 14:07:11;;;;;;;4.05;1.45;;;3.20;99.90;;;;;;4952709;28;20054;-81
2021/12/03 14:39:38;;;;;;;0.80;0.80;;;3.50;99.90;;;;;;4936446;29;20116;-86
2021/12/03 14:42:33;;;;;;;0.80;0.80;;;3.40;99.90;;;;;;4924404;29;20344;-83
2021/12/03 14:45:07;;;;;;;0.80;0.80;;;3.50;99.90;;;;;;4957884;28;20053;-85
2021/12/03 14:50:48;;;;;;;0.80;0.80;;;3.40;99.90;;;;;;4977522;28;20055;-84
2021/12/03 14:56:03;;;;;;;1.38;1.30;;;3.50;99.90;;;;;;4974610;28;20050;-86
2021/12/03 14:58:42;;;;;;;2.63;2.42;;;3.50;99.90;;;;;;4966852;28;20114;-85
2021/12/03 15:04:28;;;;;;;0.80;0.80;;;3.60;99.90;;;;;;4971301;28;21137;-80
2021/12/03 15:07:14;;;;;;;0.90;0.90;;;3.50;99.90;;;;;;4975238;28;20118;-80
2021/12/03 15:09:46;;;;;;;0.80;0.80;;;3.50;99.90;;;;;;4970395;28;20160;-81
2021/12/03 15:28:46;;;;;;;1.58;1.48;;;3.60;99.90;;;;;;4964673;28;20039;-81
2021/12/03 15:31:30;;;;;;;1.50;1.30;;;3.60;99.90;;;;;;4968621;28;20439;-81
2021/12/03 16:17:17;;;;;;;0.70;0.70;;;3.50;99.90;;;;;;4966530;28;20055;-88
2021/12/03 16:20:08;;;;;;;1.13;1.10;;;;;;;;;;4965427;28;20038;-88
2021/12/03 16:43:55;;;;;;;1.45;1.35;;;3.50;99.90;;;;;;4964176;28;20039;-85
2021/12/03 16:49:53;;;;;;;3.63;2.00;;;3.50;99.90;;;;;;4973031;28;20107;-85
2021/12/03 16:52:01;;;;;;;0.90;0.90;;;3.50;99.90;;;;;;4967400;28;20129;-86
2021/12/03 16:54:42;;;;;;;1.25;1.25;;;3.50;99.90;;;;;;4975444;28;20042;-85
2021/12/03 16:57:09;;;;;;;1.20;1.15;;;3.60;99.90;;;;;;4960578;28;20089;-85
2021/12/03 16:59:35;;;;;;;0.80;0.80;;;3.60;99.90;;;;;;4961766;28;20031;-84
2021/12/03 17:02:13;;;;;;;1.40;1.30;;;3.60;99.90;;;;;;4955218;28;20061;-84
2021/12/03 17:05:01;;;;;;;1.13;1.02;;;3.60;99.90;;;;;;4961770;28;20105;-84
2021/12/03 17:08:19;;;;;;;1.52;1.42;;;4.20;99.90;;;;;;4960611;28;20047;-85
2021/12/03 17:21:44;;;;;;;;;;;3.70;99.90;;;;;;4972677;28;20047;-85
2021/12/03 17:24:31;;;;;;;0.90;0.90;;;3.90;99.90;;;;;;4973997;28;19926;-84
2021/12/03 17:30:06;;;;;;;1.17;1.08;;;3.70;99.90;;;;;;4968915;28;20139;-84
2021/12/03 17:48:48;;;;;;;0.75;0.75;;;4.00;99.90;;;;;;4962245;28;20058;-84
2021/12/03 17:51:59;;;;;;;1.02;1.02;;;3.70;99.90;;;;;;4969177;28;20058;-85
2021/12/03 17:54:26;;;;;;;0.80;0.80;;;3.60;99.90;;;;;;4955223;28;20078;-84
2021/12/03 17:56:54;;;;;;;1.40;1.30;;;3.70;99.90;;;;;;4950706;28;20049;-83
2021/12/03 17:59:53;;;;;;;2.63;1.35;;;3.70;99.90;;;;;;4968509;28;20153;-83
2021/12/03 18:05:05;;;;;;;1.30;1.20;;;3.70;99.90;;;;;;4970107;28;20388;-83
2021/12/03 18:10:25;;;;;;;0.77;0.77;;;3.70;99.90;;;;;;4976606;28;20042;-84
2021/12/03 18:55:50;;;;;;;1.67;1.58;;;3.80;99.90;;;;;;4981946;28;20047;-83
2021/12/03 18:58:16;;;;;;;1.27;1.17;;;3.80;99.90;;;;;;4979818;28;20463;-84
2021/12/03 19:00:44;;;;;;;3.17;2.60;;;4.10;99.90;;;;;;4979957;28;20103;-82
2021/12/03 19:06:08;;;;;;;1.02;1.02;;;3.90;99.90;;;;;;4978513;28;20143;-83
2021/12/03 19:08:48;;;;;;;1.40;1.30;;;3.80;99.90;;;;;;4980570;28;20074;-83
2021/12/03 19:11:22;;;;;;;1.20;1.10;;;3.90;99.90;;;;;;4982588;28;20110;-85
2021/12/03 19:13:48;;;;;;;;;;;4.00;99.90;;;;;;4958909;28;20069;-85
2021/12/03 19:16:15;;;;;;;0.77;0.77;;;3.90;99.90;;;;;;4965699;28;20000;-84
2021/12/03 19:18:45;;;;;;;0.80;0.80;;;3.90;99.90;;;;;;4971241;28;20055;-83
2021/12/03 19:21:16;;;;;;;0.85;0.85;;;3.90;99.90;;;;;;4969912;28;20725;-85
2021/12/03 19:23:42;;;;;;;1.55;1.23;;;3.90;99.90;;;;;;4976225;28;20121;-86
2021/12/03 19:26:07;;;;;;;0.80;0.80;;;3.90;99.90;;;;;;4961118;28;20105;-84
2021/12/03 19:28:34;;;;;;;1.13;1.02;;;3.90;99.90;;;;;;4970912;28;20042;-83
2021/12/03 19:30:59;;;;;;;1.55;1.25;;;3.90;99.90;;;;;;4971318;28;20053;-84
2021/12/03 19:33:25;;;;;;;0.82;0.82;;;3.90;99.90;;;;;;4979617;28;20476;-85
2021/12/03 19:35:51;;;;;;;0.80;0.80;;;3.90;99.90;;;;;;4959175;28;20043;-84
2021/12/03 19:38:18;;;;;;;1.42;1.33;;;3.90;99.90;;;;;;4979224;28;20049;-84
2021/12/03 19:40:53;;;;;;;2.72;1.50;;;3.90;99.90;;;;;;4973346;28;20492;-84
2021/12/03 19:43:26;;;;;;;1.65;1.55;;;3.90;99.90;;;;;;4973053;28;20098;-84
2021/12/03 19:46:18;;;;;;;1.50;1.35;;;3.90;99.90;;;;;;4957336;28;20097;-85